Flight Track Log - Related Links

Times and Time Zones

All times are in EDT time to prevent confusion due to time zone crossing. See the ASQ5432 flight status page for this flight to view local times or setup timezone preferences in your user account.

Time Position Orientation Groundspeed Altitude Reporting Facility
EDT Latitude Longitude Course Direction KTS MPH feet Rate Location/Type
Fri 02:11:49 PM 39.0500 -84.6833 270° West 151 174 1,500  Level Cincinnati TRACON
Fri 02:12:55 PM 39.0500 -84.7500 270° West 189 217 3,700 2,000 Climbing Cincinnati TRACON
Fri 02:13:55 PM 39.0500 -84.8333 270° West 262 302 5,700 2,157 Climbing Cincinnati TRACON
Fri 02:14:24 PM 39.0553 -84.8789 278° West 246 283 6,900 857 Climbing Indianapolis Center
Fri 02:15:26 PM 38.9953 -84.9242 210° Southwest 260 299 7,000 242 Climbing Indianapolis Center
Fri 02:16:28 PM 38.9228 -84.9308 184° South 262 302 7,400 1,610 Climbing Indianapolis Center
Fri 02:17:29 PM 38.8542 -84.9381 185° South 252 290 10,300 2,390 Climbing Indianapolis Center
Fri 02:18:31 PM 38.7794 -84.9464 185° South 264 304 12,300 1,694 Climbing Indianapolis Center
Fri 02:19:33 PM 38.6919 -84.9558 185° South 309 356 13,800 2,032 Climbing Indianapolis Center
Fri 02:20:35 PM 38.5897 -84.9664 185° South 327 376 16,500 2,565 Climbing Indianapolis Center
Fri 02:21:37 PM 38.5000 -84.9775 186° South 323 372 19,100 2,371 Climbing Indianapolis Center
Fri 02:22:39 PM 38.4008 -85.0189 198° South 320 368 21,400 1,805 Climbing Indianapolis Center
Fri 02:23:40 PM 38.3186 -85.0692 206° Southwest 329 379 22,800 1,220 Climbing Indianapolis Center
Fri 02:24:42 PM 38.2750 -85.1792 243° Southwest 348 400 23,900 1,016 Climbing Indianapolis Center
Fri 02:25:44 PM 38.2267 -85.2931 242° Southwest 364 419 24,900 968 Climbing Indianapolis Center
Fri 02:26:46 PM 38.1756 -85.4117 241° Southwest 378 435 25,900 968 Climbing Indianapolis Center
Fri 02:27:48 PM 38.1219 -85.5339 241° Southwest 391 450 26,900 537 Climbing Indianapolis Center
Fri 02:28:49 PM 38.0967 -85.6764 257° West 414 476 27,000 537 Climbing Indianapolis Center
Fri 02:29:51 PM 38.0658 -85.8217 255° West 426 490 28,000 1,065 Climbing Indianapolis Center
Fri 02:30:53 PM 37.9928 -85.9767 239° Southwest 425 489 29,200 1,065 Climbing Indianapolis Center
Fri 02:31:55 PM 37.9308 -86.1033 238° Southwest 421 484 30,200 968 Climbing Indianapolis Center
Fri 02:32:57 PM 37.8689 -86.2292 238° Southwest 419 482 31,200 871 Climbing Indianapolis Center
Fri 02:33:59 PM 37.8064 -86.3569 238° Southwest 414 476 32,000 387 Climbing Indianapolis Center
Fri 02:35:01 PM 37.7433 -86.4850 238° Southwest 423 487 32,000  Level Indianapolis Center
Fri 02:36:03 PM 37.6819 -86.6069 238° Southwest 422 486 32,000  Level Indianapolis Center
Fri 02:37:04 PM 37.6197 -86.7339 238° Southwest 422 486 32,000  Level Indianapolis Center
Fri 02:38:06 PM 37.5569 -86.8583 238° Southwest 419 482 32,000 242 Level Indianapolis Center
Fri 02:39:08 PM 37.4931 -86.9864 238° Southwest 418 481 32,500 484 Climbing Indianapolis Center
Fri 02:40:10 PM 37.4222 -87.1275 238° Southwest 410 472 33,000 248 Climbing Indianapolis Center
Fri 02:41:09 PM 37.3697 -87.2358 239° Southwest 416 479 33,000  Level Memphis Center
Fri 02:42:09 PM 37.3081 -87.3581 238° Southwest 416 479 33,000  Level Memphis Center
Fri 02:43:09 PM 37.2483 -87.4725 237° Southwest 416 479 33,000  Level Memphis Center
Fri 02:44:09 PM 37.1925 -87.5839 238° Southwest 402 463 33,000 200 Level Memphis Center
Fri 02:45:09 PM 37.1367 -87.6950 238° Southwest 389 448 33,400 500 Climbing Memphis Center
Fri 02:46:09 PM 37.0786 -87.8089 237° Southwest 389 448 34,000 300 Climbing Memphis Center
Fri 02:47:09 PM 37.0183 -87.9197 236° Southwest 389 448 34,000  Level Memphis Center
Fri 02:48:09 PM 36.9600 -88.0333 237° Southwest 394 453 34,000  Level Memphis Center
Fri 02:49:09 PM 36.9019 -88.1569 240° Southwest 394 453 34,000  Level Memphis Center
Fri 02:50:08 PM 36.8433 -88.2672 236° Southwest 388 447 34,000  Level Memphis Center
Fri 02:51:08 PM 36.7847 -88.3750 236° Southwest 388 447 34,000  Level Memphis Center
Fri 02:52:09 PM 36.7300 -88.4800 237° Southwest 388 447 34,000  Level Memphis Center
Fri 02:53:09 PM 36.6733 -88.5875 237° Southwest 383 441 34,000  Level Memphis Center
Fri 02:54:09 PM 36.6186 -88.6947 238° Southwest 378 435 34,000  Level Memphis Center
Fri 02:55:09 PM 36.5594 -88.8017 235° Southwest 378 435 34,000  Level Memphis Center
Fri 02:56:08 PM 36.5025 -88.9086 237° Southwest 378 435 34,000  Level Memphis Center
Fri 02:57:09 PM 36.4431 -89.0156 235° Southwest 378 435 34,000  Level Memphis Center
Fri 02:58:09 PM 36.3839 -89.1222 235° Southwest 378 435 34,000  Level Memphis Center
Fri 02:59:09 PM 36.3306 -89.2208 236° Southwest 383 441 34,000  Level Memphis Center
Fri 03:00:09 PM 36.2711 -89.3350 237° Southwest 392 451 34,000  Level Memphis Center
Fri 03:01:09 PM 36.2114 -89.4464 236° Southwest 398 458 34,000  Level Memphis Center
Fri 03:02:09 PM 36.1539 -89.5550 237° Southwest 393 452 34,000  Level Memphis Center
Fri 03:03:09 PM 36.0942 -89.6661 236° Southwest 393 452 34,000  Level Memphis Center
Fri 03:04:09 PM 36.0361 -89.7692 235° Southwest 393 452 34,000  Level Memphis Center
Fri 03:05:09 PM 35.9764 -89.8800 236° Southwest 393 452 34,000  Level Memphis Center
Fri 03:06:09 PM 35.9183 -89.9853 236° Southwest 387 445 34,000  Level Memphis Center
Fri 03:07:09 PM 35.8581 -90.0933 235° Southwest 387 445 34,000  Level Memphis Center
Fri 03:08:09 PM 35.8019 -90.1983 237° Southwest 387 445 34,000  Level Memphis Center
Fri 03:09:09 PM 35.7417 -90.3058 235° Southwest 387 445 34,000  Level Memphis Center
Fri 03:10:09 PM 35.6853 -90.4183 238° Southwest 377 434 34,000  Level Memphis Center
Fri 03:11:08 PM 35.6267 -90.5231 235° Southwest 369 425 34,000  Level Memphis Center
Fri 03:12:09 PM 35.5661 -90.6300 235° Southwest 374 430 34,000  Level Memphis Center
Fri 03:13:08 PM 35.5094 -90.7344 236° Southwest 374 430 34,000  Level Memphis Center
Fri 03:14:08 PM 35.4528 -90.8361 236° Southwest 374 430 34,000  Level Memphis Center
Fri 03:15:08 PM 35.3942 -90.9378 235° Southwest 374 430 34,000  Level Memphis Center
Fri 03:16:09 PM 35.3372 -91.0392 235° Southwest 374 430 34,000  Level Memphis Center
Fri 03:17:09 PM 35.2803 -91.1381 235° Southwest 374 430 34,000  Level Memphis Center
Fri 03:18:09 PM 35.2214 -91.2339 233° Southwest 374 430 34,000  Level Memphis Center
Fri 03:19:09 PM 35.1664 -91.3350 236° Southwest 369 425 34,000  Level Memphis Center
Fri 03:20:08 PM 35.1069 -91.4333 234° Southwest 369 425 34,000  Level Memphis Center
Fri 03:21:09 PM 35.0519 -91.5342 236° Southwest 364 419 34,000  Level Memphis Center
Fri 03:22:08 PM 34.9947 -91.6297 234° Southwest 359 413 34,000  Level Memphis Center
Fri 03:23:08 PM 34.9394 -91.7275 235° Southwest 359 413 34,000  Level Memphis Center
Fri 03:24:08 PM 34.8861 -91.8231 236° Southwest 354 407 34,000  Level Memphis Center
Fri 03:25:09 PM 34.8286 -91.9206 234° Southwest 354 407 34,000  Level Memphis Center
Fri 03:26:08 PM 34.7775 -92.0056 234° Southwest 354 407 34,000  Level Memphis Center
Fri 03:27:09 PM 34.7239 -92.1006 236° Southwest 354 407 34,000  Level Memphis Center
Fri 03:28:09 PM 34.6725 -92.2006 238° Southwest 354 407 34,000  Level Memphis Center
Fri 03:29:09 PM 34.6417 -92.3136 252° West 349 402 34,000  Level Memphis Center
Fri 03:30:09 PM 34.6128 -92.4239 252° West 349 402 34,000  Level Memphis Center
Fri 03:31:09 PM 34.5836 -92.5342 252° West 349 402 34,000  Level Memphis Center
Fri 03:32:09 PM 34.5567 -92.6444 254° West 349 402 34,000  Level Memphis Center
Fri 03:33:09 PM 34.5256 -92.7519 251° West 344 396 34,000  Level Memphis Center
Fri 03:34:09 PM 34.4961 -92.8644 252° West 344 396 34,000  Level Memphis Center
Fri 03:35:09 PM 34.4667 -92.9719 252° West 349 402 34,000  Level Memphis Center
Fri 03:36:09 PM 34.4350 -93.0894 252° West 349 402 34,000  Level Memphis Center
Fri 03:37:09 PM 34.4033 -93.2017 251° West 355 409 34,000  Level Memphis Center
Fri 03:39:26 PM 34.3367 -93.4700 253° West 362 417 34,000  Level Fort Worth Center
Fri 03:40:26 PM 34.3050 -93.5844 252° West 367 422 34,000  Level Fort Worth Center
Fri 03:41:26 PM 34.2728 -93.7017 252° West 367 422 34,000  Level Fort Worth Center
Fri 03:42:26 PM 34.2386 -93.8161 250° West 367 422 34,000  Level Fort Worth Center
Fri 03:43:26 PM 34.2028 -93.9481 252° West 374 430 34,000 -250 Level Fort Worth Center
Fri 03:44:26 PM 34.1706 -94.0650 252° West 374 430 33,500 -600 Descending Fort Worth Center
Fri 03:45:26 PM 34.1361 -94.1892 252° West 380 437 32,800 -750 Descending Fort Worth Center
Fri 03:46:26 PM 34.1017 -94.3108 251° West 385 443 32,000 -1,050 Descending Fort Worth Center
Fri 03:47:26 PM 34.0672 -94.4350 252° West 390 449 30,700 -1,550 Descending Fort Worth Center
Fri 03:48:26 PM 34.0303 -94.5614 251° West 396 456 28,900 -1,850 Descending Fort Worth Center
Fri 03:49:26 PM 33.9936 -94.6856 250° West 396 456 27,000 -1,950 Descending Fort Worth Center
Fri 03:50:26 PM 33.9583 -94.8017 250° West 390 449 25,000 -1,500 Descending Fort Worth Center
Fri 03:51:26 PM 33.9233 -94.9256 251° West 390 449 24,000 -500 Descending Fort Worth Center
Fri 03:52:26 PM 33.8883 -95.0517 252° West 397 457 24,000  Level Fort Worth Center
Fri 03:53:26 PM 33.8508 -95.1750 250° West 397 457 24,000  Level Fort Worth Center
Fri 03:54:26 PM 33.8069 -95.2936 246° West 397 457 24,000 -350 Level Fort Worth Center
Fri 03:55:26 PM 33.7631 -95.4147 246° West 397 457 23,300 -1,100 Descending Fort Worth Center
Fri 03:56:26 PM 33.7189 -95.5331 246° West 392 451 21,800 -1,350 Descending Fort Worth Center
Fri 03:57:26 PM 33.6789 -95.6464 247° West 387 445 20,600 -1,000 Descending Fort Worth Center
Fri 03:58:26 PM 33.6344 -95.7619 245° Southwest 381 438 19,800 -950 Descending Fort Worth Center
Fri 03:59:26 PM 33.5922 -95.8825 247° West 381 438 18,700 -1,000 Descending Fort Worth Center
Fri 04:00:26 PM 33.5497 -95.9953 246° West 381 438 17,800 -1,000 Descending Fort Worth Center
Fri 04:01:26 PM 33.5111 -96.0981 246° West 381 438 16,700 -1,150 Descending Fort Worth Center
Fri 04:02:26 PM 33.4644 -96.2208 246° West 376 433 15,500 -1,050 Descending Fort Worth Center
Fri 04:03:26 PM 33.4297 -96.3208 247° West 376 433 14,600 -900 Descending Fort Worth Center
Fri 04:04:26 PM 33.3744 -96.4258 238° Southwest 352 405 13,700 -700 Descending Fort Worth Center
Fri 04:05:26 PM 33.3164 -96.4961 225° Southwest 340 391 13,200 -750 Descending Fort Worth Center
Fri 04:06:26 PM 33.2544 -96.5739 226° Southwest 335 386 12,200 -1,100 Descending Fort Worth Center
Fri 04:07:26 PM 33.1900 -96.6514 225° Southwest 309 356 11,000 -600 Descending Fort Worth Center
Fri 04:08:26 PM 33.1361 -96.7139 224° Southwest 304 350 11,000  Level Fort Worth Center
Fri 04:09:26 PM 33.0739 -96.7886 225° Southwest 304 350 11,000  Level Fort Worth Center
Fri 04:09:41 PM 33.0500 -96.8000 202° Southwest 295 339 11,000  Level Dallas / Fort Worth TRACON
Fri 04:10:41 PM 33.0000 -96.8667 228° Southwest 287 330 11,000 -50 Level Dallas / Fort Worth TRACON
Fri 04:11:41 PM 32.9333 -96.9000 203° Southwest 270 311 10,900 -700 Descending Dallas / Fort Worth TRACON
Fri 04:12:41 PM 32.8667 -96.9000 180° South 256 295 9,600 -1,765 Descending Dallas / Fort Worth TRACON
Fri 04:13:40 PM 32.7833 -96.9000 180° South 252 290 7,400 -1,947 Descending Dallas / Fort Worth TRACON
Fri 04:14:35 PM 32.7333 -96.9000 180° South 249 287 5,900 -1,617 Descending Dallas / Fort Worth TRACON
Fri 04:15:35 PM 32.7000 -96.9833 245° Southwest 236 272 4,300 -1,300 Descending Dallas / Fort Worth TRACON
Fri 04:16:35 PM 32.7333 -97.0333 308° West 204 235 3,300 -1,095 Descending Dallas / Fort Worth TRACON
Fri 04:17:41 PM 32.8000 -97.0167 12° North 214 246 2,000 -1,050 Descending Dallas / Fort Worth TRACON
Fri 04:18:35 PM 32.8500 -97.0167 360° North 147 169 1,200 -889 Descending Dallas / Fort Worth TRACON
Fri 04:20:00 PM 32.8833 -97.0333 323° Northwest  Level FlightAware Approximate
Fri 04:27:00 PM 32.8968 -97.0380 323° Northwest  Level Estimated

Login

Don't have an account? Register now (free) for customized features, flight alerts, and more!